sensor_id;sensor_type;location;lat;lon;timestamp;pressure;altitude;pressure_sealevel;temperature;humidity
79589;BME280;69067;51.930;4.492;2023-08-20T00:01:42;102008.56;;;28.26;41.94
79589;BME280;69067;51.930;4.492;2023-08-20T00:04:09;102006.88;;;28.25;42.15
79589;BME280;69067;51.930;4.492;2023-08-20T00:06:35;102018.03;;;28.30;42.17
79589;BME280;69067;51.930;4.492;2023-08-20T00:09:01;102017.63;;;28.33;42.44
79589;BME280;69067;51.930;4.492;2023-08-20T00:11:29;102001.19;;;28.26;42.19
79589;BME280;69067;51.930;4.492;2023-08-20T00:13:55;102000.75;;;28.29;42.15
79589;BME280;69067;51.930;4.492;2023-08-20T00:16:21;102012.34;;;28.31;42.54
79589;BME280;69067;51.930;4.492;2023-08-20T00:18:47;102025.00;;;28.26;42.55
79589;BME280;69067;51.930;4.492;2023-08-20T00:21:14;101987.69;;;28.11;42.67
79589;BME280;69067;51.930;4.492;2023-08-20T00:23:40;102021.84;;;28.29;42.25
79589;BME280;69067;51.930;4.492;2023-08-20T00:26:06;102029.84;;;28.30;41.97
79589;BME280;69067;51.930;4.492;2023-08-20T00:28:32;102035.31;;;28.30;41.98
79589;BME280;69067;51.930;4.492;2023-08-20T00:31:00;102022.28;;;28.19;42.37
79589;BME280;69067;51.930;4.492;2023-08-20T00:33:26;102037.03;;;28.25;42.30
79589;BME280;69067;51.930;4.492;2023-08-20T00:35:52;102051.75;;;28.30;42.26
79589;BME280;69067;51.930;4.492;2023-08-20T00:38:18;102062.72;;;28.30;42.41
79589;BME280;69067;51.930;4.492;2023-08-20T00:40:44;102042.91;;;28.15;42.57
79589;BME280;69067;51.930;4.492;2023-08-20T00:43:10;102063.56;;;28.31;41.89
79589;BME280;69067;51.930;4.492;2023-08-20T00:45:36;102062.91;;;28.29;42.56
79589;BME280;69067;51.930;4.492;2023-08-20T00:48:04;102042.50;;;28.18;42.58
79589;BME280;69067;51.930;4.492;2023-08-20T00:50:31;102037.22;;;28.16;42.77
79589;BME280;69067;51.930;4.492;2023-08-20T00:52:57;102037.63;;;28.13;43.00
79589;BME280;69067;51.930;4.492;2023-08-20T00:55:23;102045.03;;;28.19;42.61
79589;BME280;69067;51.930;4.492;2023-08-20T00:57:49;102062.72;;;28.30;42.71
79589;BME280;69067;51.930;4.492;2023-08-20T01:00:17;102049.22;;;28.22;42.56
79589;BME280;69067;51.930;4.492;2023-08-20T01:02:43;102061.88;;;28.30;42.66
79589;BME280;69067;51.930;4.492;2023-08-20T01:05:11;102040.81;;;28.17;42.70
79589;BME280;69067;51.930;4.492;2023-08-20T01:13:01;102070.28;;;28.21;42.70
79589;BME280;69067;51.930;4.492;2023-08-20T01:15:27;102081.28;;;28.28;42.92
79589;BME280;69067;51.930;4.492;2023-08-20T01:17:53;102050.03;;;28.09;43.06
79589;BME280;69067;51.930;4.492;2023-08-20T01:20:25;102072.81;;;28.23;42.91
79589;BME280;69067;51.930;4.492;2023-08-20T01:26:00;102074.72;;;28.29;42.78
79589;BME280;69067;51.930;4.492;2023-08-20T01:28:39;102056.84;;;28.20;42.97
79589;BME280;69067;51.930;4.492;2023-08-20T01:31:06;102064.84;;;28.28;42.91
79589;BME280;69067;51.930;4.492;2023-08-20T01:33:34;102039.28;;;28.08;43.28
79589;BME280;69067;51.930;4.492;2023-08-20T01:36:00;102054.94;;;28.20;43.01
79589;BME280;69067;51.930;4.492;2023-08-20T01:38:26;102051.13;;;28.15;43.36
79589;BME280;69067;51.930;4.492;2023-08-20T01:40:52;102065.47;;;28.17;42.85
79589;BME280;69067;51.930;4.492;2023-08-20T01:43:18;102059.13;;;28.16;42.64
79589;BME280;69067;51.930;4.492;2023-08-20T01:45:45;102068.84;;;28.19;42.96
79589;BME280;69067;51.930;4.492;2023-08-20T01:48:11;102084.03;;;28.28;43.02
79589;BME280;69067;51.930;4.492;2023-08-20T01:50:37;102066.94;;;28.19;43.34
79589;BME280;69067;51.930;4.492;2023-08-20T01:53:03;102061.66;;;28.18;43.07
79589;BME280;69067;51.930;4.492;2023-08-20T01:55:29;102053.41;;;28.11;42.85
79589;BME280;69067;51.930;4.492;2023-08-20T01:57:55;102035.94;;;28.06;43.36
79589;BME280;69067;51.930;4.492;2023-08-20T02:00:21;102046.03;;;28.12;43.61
79589;BME280;69067;51.930;4.492;2023-08-20T02:02:47;102075.16;;;28.26;43.36
79589;BME280;69067;51.930;4.492;2023-08-20T02:05:13;102033.00;;;28.07;43.17
79589;BME280;69067;51.930;4.492;2023-08-20T02:07:39;102031.06;;;28.08;42.97
79589;BME280;69067;51.930;4.492;2023-08-20T02:10:05;102041.84;;;28.16;43.08
79589;BME280;69067;51.930;4.492;2023-08-20T02:12:32;102062.50;;;28.25;42.76
79589;BME280;69067;51.930;4.492;2023-08-20T02:14:58;102041.41;;;28.12;42.80
79589;BME280;69067;51.930;4.492;2023-08-20T02:17:23;102042.47;;;28.11;43.38
79589;BME280;69067;51.930;4.492;2023-08-20T02:19:49;102070.72;;;28.25;42.93
79589;BME280;69067;51.930;4.492;2023-08-20T02:22:15;102058.50;;;28.14;43.02
79589;BME280;69067;51.930;4.492;2023-08-20T02:24:41;102067.16;;;28.18;43.12
79589;BME280;69067;51.930;4.492;2023-08-20T02:27:07;102077.91;;;28.26;42.82
79589;BME280;69067;51.930;4.492;2023-08-20T02:29:33;102050.47;;;28.13;42.69
79589;BME280;69067;51.930;4.492;2023-08-20T02:31:58;102068.59;;;28.14;42.92
79589;BME280;69067;51.930;4.492;2023-08-20T02:34:24;102057.84;;;28.12;43.26
79589;BME280;69067;51.930;4.492;2023-08-20T02:36:50;102056.59;;;28.15;43.15
79589;BME280;69067;51.930;4.492;2023-08-20T02:39:16;102054.25;;;28.12;43.15
79589;BME280;69067;51.930;4.492;2023-08-20T02:41:42;102082.75;;;28.24;42.87
79589;BME280;69067;51.930;4.492;2023-08-20T02:44:09;102082.09;;;28.22;42.46
79589;BME280;69067;51.930;4.492;2023-08-20T02:46:35;102077.25;;;28.24;42.98
79589;BME280;69067;51.930;4.492;2023-08-20T02:49:01;102051.31;;;28.07;42.72
79589;BME280;69067;51.930;4.492;2023-08-20T02:51:27;102083.78;;;28.16;42.68
79589;BME280;69067;51.930;4.492;2023-08-20T02:53:53;102074.06;;;28.14;43.12
79589;BME280;69067;51.930;4.492;2023-08-20T02:56:18;102093.50;;;28.19;43.55
79589;BME280;69067;51.930;4.492;2023-08-20T02:58:44;102072.13;;;28.01;42.98
79589;BME280;69067;51.930;4.492;2023-08-20T03:01:21;102082.91;;;28.09;42.98
79589;BME280;69067;51.930;4.492;2023-08-20T03:03:48;102074.69;;;28.03;42.93
79589;BME280;69067;51.930;4.492;2023-08-20T03:06:14;102070.25;;;28.02;43.12
79589;BME280;69067;51.930;4.492;2023-08-20T03:08:40;102082.03;;;28.02;43.06
79589;BME280;69067;51.930;4.492;2023-08-20T03:11:06;102084.19;;;28.07;42.72
79589;BME280;69067;51.930;4.492;2023-08-20T03:13:32;102077.41;;;28.03;43.35
79589;BME280;69067;51.930;4.492;2023-08-20T03:15:58;102082.28;;;28.07;43.10
79589;BME280;69067;51.930;4.492;2023-08-20T03:18:24;102088.63;;;28.14;43.31
79589;BME280;69067;51.930;4.492;2023-08-20T03:20:50;102071.72;;;28.04;42.98
79589;BME280;69067;51.930;4.492;2023-08-20T03:23:16;102064.56;;;28.03;43.22
79589;BME280;69067;51.930;4.492;2023-08-20T03:25:42;102082.69;;;28.11;43.18
79589;BME280;69067;51.930;4.492;2023-08-20T03:28:08;102093.06;;;28.22;42.73
79589;BME280;69067;51.930;4.492;2023-08-20T03:30:34;102078.28;;;28.10;42.77
79589;BME280;69067;51.930;4.492;2023-08-20T03:32:59;102102.34;;;28.21;43.08
79589;BME280;69067;51.930;4.492;2023-08-20T03:35:25;102100.66;;;28.20;43.01
79589;BME280;69067;51.930;4.492;2023-08-20T03:37:51;102061.41;;;28.00;43.32
79589;BME280;69067;51.930;4.492;2023-08-20T03:40:17;102091.56;;;28.13;43.41
79589;BME280;69067;51.930;4.492;2023-08-20T03:42:44;102074.06;;;28.07;43.51
79589;BME280;69067;51.930;4.492;2023-08-20T03:45:09;102090.50;;;28.14;42.89
79589;BME280;69067;51.930;4.492;2023-08-20T03:47:35;102087.13;;;28.12;43.07
79589;BME280;69067;51.930;4.492;2023-08-20T03:50:02;102091.34;;;28.14;43.35
79589;BME280;69067;51.930;4.492;2023-08-20T03:52:29;102083.53;;;28.11;43.18
79589;BME280;69067;51.930;4.492;2023-08-20T03:54:56;102079.53;;;28.07;43.26
79589;BME280;69067;51.930;4.492;2023-08-20T03:57:22;102075.31;;;28.05;43.17
79589;BME280;69067;51.930;4.492;2023-08-20T03:59:48;102071.53;;;28.06;43.12
79589;BME280;69067;51.930;4.492;2023-08-20T04:02:14;102059.72;;;27.99;43.48
79589;BME280;69067;51.930;4.492;2023-08-20T04:04:40;102069.00;;;27.98;43.50
79589;BME280;69067;51.930;4.492;2023-08-20T04:07:06;102091.31;;;28.08;42.99
79589;BME280;69067;51.930;4.492;2023-08-20T04:09:33;102106.69;;;28.09;43.33
79589;BME280;69067;51.930;4.492;2023-08-20T04:11:59;102088.34;;;27.96;43.44
79589;BME280;69067;51.930;4.492;2023-08-20T04:14:25;102121.69;;;28.13;43.45
79589;BME280;69067;51.930;4.492;2023-08-20T04:16:52;102103.75;;;27.97;43.28
79589;BME280;69067;51.930;4.492;2023-08-20T04:19:18;102121.22;;;28.03;43.40
79589;BME280;69067;51.930;4.492;2023-08-20T04:21:43;102115.75;;;27.96;43.62
79589;BME280;69067;51.930;4.492;2023-08-20T04:24:09;102146.97;;;28.15;43.53
79589;BME280;69067;51.930;4.492;2023-08-20T04:26:35;102116.59;;;27.97;43.17
79589;BME280;69067;51.930;4.492;2023-08-20T04:29:01;102138.31;;;28.11;43.13
79589;BME280;69067;51.930;4.492;2023-08-20T04:31:27;102143.41;;;28.14;43.27
79589;BME280;69067;51.930;4.492;2023-08-20T04:33:53;102115.75;;;27.96;43.10
79589;BME280;69067;51.930;4.492;2023-08-20T04:36:19;102141.91;;;28.12;43.35
79589;BME280;69067;51.930;4.492;2023-08-20T04:38:45;102123.56;;;27.99;43.74
79589;BME280;69067;51.930;4.492;2023-08-20T04:41:10;102142.75;;;28.12;43.21
79589;BME280;69067;51.930;4.492;2023-08-20T04:43:36;102131.97;;;28.04;43.55
79589;BME280;69067;51.930;4.492;2023-08-20T04:46:02;102140.59;;;28.08;43.01
79589;BME280;69067;51.930;4.492;2023-08-20T04:48:28;102153.31;;;28.15;43.60
79589;BME280;69067;51.930;4.492;2023-08-20T04:50:54;102160.69;;;28.15;43.30
79589;BME280;69067;51.930;4.492;2023-08-20T04:53:20;102135.97;;;28.02;43.39
79589;BME280;69067;51.930;4.492;2023-08-20T04:55:46;102137.88;;;28.08;43.77
79589;BME280;69067;51.930;4.492;2023-08-20T04:58:12;102117.63;;;27.96;43.31
79589;BME280;69067;51.930;4.492;2023-08-20T05:00:37;102154.16;;;28.16;43.09
79589;BME280;69067;51.930;4.492;2023-08-20T05:03:03;102135.75;;;28.03;43.83
79589;BME280;69067;51.930;4.492;2023-08-20T05:05:30;102142.31;;;28.09;43.35
79589;BME280;69067;51.930;4.492;2023-08-20T05:07:55;102137.88;;;28.08;43.52
79589;BME280;69067;51.930;4.492;2023-08-20T05:10:21;102151.16;;;28.11;43.18
79589;BME280;69067;51.930;4.492;2023-08-20T05:12:47;102148.81;;;28.08;43.34
79589;BME280;69067;51.930;4.492;2023-08-20T05:15:13;102143.34;;;28.01;43.04
79589;BME280;69067;51.930;4.492;2023-08-20T05:17:39;102154.56;;;28.13;43.42
79589;BME280;69067;51.930;4.492;2023-08-20T05:20:05;102163.81;;;28.12;43.38
79589;BME280;69067;51.930;4.492;2023-08-20T05:22:31;102166.56;;;28.12;43.67
79589;BME280;69067;51.930;4.492;2023-08-20T05:24:57;102131.75;;;27.93;43.22
79589;BME280;69067;51.930;4.492;2023-08-20T05:27:23;102157.03;;;28.08;43.45
79589;BME280;69067;51.930;4.492;2023-08-20T05:29:49;102138.09;;;28.00;43.41
79589;BME280;69067;51.930;4.492;2023-08-20T05:32:15;102127.13;;;27.93;43.13
79589;BME280;69067;51.930;4.492;2023-08-20T05:34:42;102147.75;;;28.02;43.20
79589;BME280;69067;51.930;4.492;2023-08-20T05:37:07;102137.25;;;27.99;43.74
79589;BME280;69067;51.930;4.492;2023-08-20T05:39:42;102143.97;;;28.03;43.53
79589;BME280;69067;51.930;4.492;2023-08-20T05:42:08;102154.09;;;28.09;43.21
79589;BME280;69067;51.930;4.492;2023-08-20T05:44:35;102143.13;;;28.03;43.09
79589;BME280;69067;51.930;4.492;2023-08-20T05:47:01;102142.50;;;28.01;43.45
79589;BME280;69067;51.930;4.492;2023-08-20T05:49:27;102140.59;;;28.01;43.71
79589;BME280;69067;51.930;4.492;2023-08-20T05:51:53;102122.44;;;27.87;43.86
79589;BME280;69067;51.930;4.492;2023-08-20T05:54:19;102139.75;;;28.01;44.20
79589;BME280;69067;51.930;4.492;2023-08-20T05:56:45;102128.75;;;27.88;44.05
79589;BME280;69067;51.930;4.492;2023-08-20T05:59:11;102155.97;;;28.02;43.73
79589;BME280;69067;51.930;4.492;2023-08-20T06:01:36;102128.75;;;27.88;43.54
79589;BME280;69067;51.930;4.492;2023-08-20T06:04:02;102143.75;;;27.98;43.82
79589;BME280;69067;51.930;4.492;2023-08-20T06:06:29;102149.03;;;28.00;44.12
79589;BME280;69067;51.930;4.492;2023-08-20T06:08:55;102153.66;;;27.99;43.92
79589;BME280;69067;51.930;4.492;2023-08-20T06:11:21;102170.72;;;28.08;43.53
79589;BME280;69067;51.930;4.492;2023-08-20T06:13:46;102160.00;;;28.00;43.65
79589;BME280;69067;51.930;4.492;2023-08-20T06:16:12;102166.72;;;28.04;43.77
79589;BME280;69067;51.930;4.492;2023-08-20T06:18:38;102125.81;;;27.82;43.87
79589;BME280;69067;51.930;4.492;2023-08-20T06:21:04;102163.59;;;28.00;43.48
79589;BME280;69067;51.930;4.492;2023-08-20T06:23:30;102152.38;;;27.95;44.03
79589;BME280;69067;51.930;4.492;2023-08-20T06:25:56;102148.19;;;27.99;43.46
79589;BME280;69067;51.930;4.492;2023-08-20T06:28:22;102158.31;;;27.99;43.57
79589;BME280;69067;51.930;4.492;2023-08-20T06:30:48;102147.94;;;27.94;43.65
79589;BME280;69067;51.930;4.492;2023-08-20T06:33:13;102152.19;;;27.97;43.68
79589;BME280;69067;51.930;4.492;2023-08-20T06:35:39;102160.84;;;28.00;44.11
79589;BME280;69067;51.930;4.492;2023-08-20T06:38:07;102175.59;;;28.06;43.97
79589;BME280;69067;51.930;4.492;2023-08-20T06:40:33;102165.03;;;27.96;44.19
79589;BME280;69067;51.930;4.492;2023-08-20T06:42:59;102170.13;;;28.06;43.78
79589;BME280;69067;51.930;4.492;2023-08-20T06:45:25;102170.94;;;28.00;43.63
79589;BME280;69067;51.930;4.492;2023-08-20T06:47:51;102174.56;;;28.07;44.11
79589;BME280;69067;51.930;4.492;2023-08-20T06:50:17;102166.50;;;27.99;43.83
79589;BME280;69067;51.930;4.492;2023-08-20T06:52:43;102164.81;;;27.98;44.05
79589;BME280;69067;51.930;4.492;2023-08-20T06:55:09;102149.81;;;27.87;43.50
79589;BME280;69067;51.930;4.492;2023-08-20T06:57:35;102149.00;;;27.87;43.75
79589;BME280;69067;51.930;4.492;2023-08-20T07:00:01;102177.69;;;28.04;43.74
79589;BME280;69067;51.930;4.492;2023-08-20T07:02:30;102188.25;;;28.07;44.08
79589;BME280;69067;51.930;4.492;2023-08-20T07:04:56;102180.00;;;28.00;43.76
79589;BME280;69067;51.930;4.492;2023-08-20T07:07:22;102192.44;;;28.03;43.76
79589;BME280;69067;51.930;4.492;2023-08-20T07:09:48;102193.91;;;28.05;43.88
79589;BME280;69067;51.930;4.492;2023-08-20T07:12:13;102203.81;;;28.06;43.29
79589;BME280;69067;51.930;4.492;2023-08-20T07:14:39;102175.75;;;27.91;43.92
79589;BME280;69067;51.930;4.492;2023-08-20T07:17:05;102208.47;;;28.06;43.97
79589;BME280;69067;51.930;4.492;2023-08-20T07:19:31;102186.72;;;27.91;43.98
79589;BME280;69067;51.930;4.492;2023-08-20T07:21:57;102177.44;;;27.86;43.13
79589;BME280;69067;51.930;4.492;2023-08-20T07:24:23;102200.84;;;28.01;44.00
79589;BME280;69067;51.930;4.492;2023-08-20T07:26:54;102210.16;;;28.07;44.06
79589;BME280;69067;51.930;4.492;2023-08-20T07:29:25;102201.69;;;28.02;43.70
79589;BME280;69067;51.930;4.492;2023-08-20T07:31:51;102207.16;;;28.02;44.13
79589;BME280;69067;51.930;4.492;2023-08-20T07:34:18;102195.34;;;27.95;43.64
79589;BME280;69067;51.930;4.492;2023-08-20T07:36:44;102210.16;;;28.07;43.86
79589;BME280;69067;51.930;4.492;2023-08-20T07:39:10;102208.44;;;27.99;43.51
79589;BME280;69067;51.930;4.492;2023-08-20T07:41:36;102220.25;;;28.06;44.14
79589;BME280;69067;51.930;4.492;2023-08-20T07:44:02;102208.44;;;27.99;44.00
79589;BME280;69067;51.930;4.492;2023-08-20T07:46:28;102217.91;;;28.03;43.64
79589;BME280;69067;51.930;4.492;2023-08-20T07:48:53;102224.03;;;28.05;43.86
79589;BME280;69067;51.930;4.492;2023-08-20T07:51:20;102218.53;;;27.99;43.64
79589;BME280;69067;51.930;4.492;2023-08-20T07:53:45;102210.31;;;27.92;44.30
79589;BME280;69067;51.930;4.492;2023-08-20T07:56:11;102221.47;;;27.97;43.68
79589;BME280;69067;51.930;4.492;2023-08-20T07:58:37;102201.41;;;27.83;43.42
79589;BME280;69067;51.930;4.492;2023-08-20T08:01:03;102224.84;;;27.93;43.89
79589;BME280;69067;51.930;4.492;2023-08-20T08:03:29;102230.53;;;27.98;44.15
79589;BME280;69067;51.930;4.492;2023-08-20T08:05:55;102235.38;;;27.96;43.62
79589;BME280;69067;51.930;4.492;2023-08-20T08:08:22;102217.44;;;27.87;43.83
79589;BME280;69067;51.930;4.492;2023-08-20T08:10:49;102218.09;;;27.95;44.06
79589;BME280;69067;51.930;4.492;2023-08-20T08:13:18;102237.91;;;27.97;44.30
79589;BME280;69067;51.930;4.492;2023-08-20T08:15:46;102230.72;;;27.90;43.76
79589;BME280;69067;51.930;4.492;2023-08-20T08:18:12;102242.75;;;28.02;44.27
79589;BME280;69067;51.930;4.492;2023-08-20T08:20:38;102227.59;;;27.93;44.00
79589;BME280;69067;51.930;4.492;2023-08-20T08:23:04;102228.19;;;27.95;44.08
79589;BME280;69067;51.930;4.492;2023-08-20T08:25:30;102227.97;;;27.90;44.27
79589;BME280;69067;51.930;4.492;2023-08-20T08:27:56;102206.69;;;27.85;43.62
79589;BME280;69067;51.930;4.492;2023-08-20T08:30:22;102228.63;;;27.92;44.13
79589;BME280;69067;51.930;4.492;2023-08-20T08:32:48;102224.41;;;27.96;44.23
79589;BME280;69067;51.930;4.492;2023-08-20T08:35:14;102211.72;;;27.81;43.64
79589;BME280;69067;51.930;4.492;2023-08-20T08:37:40;102211.13;;;27.86;44.03
79589;BME280;69067;51.930;4.492;2023-08-20T08:40:06;102214.06;;;27.85;44.10
79589;BME280;69067;51.930;4.492;2023-08-20T08:42:33;102255.41;;;28.03;43.75
79589;BME280;69067;51.930;4.492;2023-08-20T08:45:00;102237.88;;;27.91;44.19
79589;BME280;69067;51.930;4.492;2023-08-20T08:47:26;102259.00;;;28.03;44.31
79589;BME280;69067;51.930;4.492;2023-08-20T08:49:56;102242.53;;;27.97;43.84
79589;BME280;69067;51.930;4.492;2023-08-20T08:52:23;102252.66;;;28.03;44.41
79589;BME280;69067;51.930;4.492;2023-08-20T08:54:49;102231.75;;;27.89;44.10
79589;BME280;69067;51.930;4.492;2023-08-20T08:57:15;102233.25;;;27.91;44.36
79589;BME280;69067;51.930;4.492;2023-08-20T08:59:42;102247.63;;;28.00;44.04
79589;BME280;69067;51.930;4.492;2023-08-20T09:02:10;102247.16;;;27.96;43.32
79589;BME280;69067;51.930;4.492;2023-08-20T09:04:41;102241.06;;;28.01;43.68
79589;BME280;69067;51.930;4.492;2023-08-20T09:07:13;102225.66;;;27.87;43.83
79589;BME280;69067;51.930;4.492;2023-08-20T09:09:44;102261.97;;;28.08;44.03
79589;BME280;69067;51.930;4.492;2023-08-20T09:12:18;102250.97;;;28.02;44.02
79589;BME280;69067;51.930;4.492;2023-08-20T09:14:47;102262.81;;;28.09;43.88
79589;BME280;69067;51.930;4.492;2023-08-20T09:17:14;102224.59;;;27.88;43.83
79589;BME280;69067;51.930;4.492;2023-08-20T09:19:43;102264.69;;;28.08;43.68
79589;BME280;69067;51.930;4.492;2023-08-20T09:22:14;102270.41;;;28.07;43.59
79589;BME280;69067;51.930;4.492;2023-08-20T09:24:45;102249.28;;;28.01;43.48
79589;BME280;69067;51.930;4.492;2023-08-20T09:27:12;102242.16;;;28.00;43.41
79589;BME280;69067;51.930;4.492;2023-08-20T09:32:20;102261.97;;;28.08;43.40
79589;BME280;69067;51.930;4.492;2023-08-20T09:34:49;102230.06;;;27.88;43.02
79589;BME280;69067;51.930;4.492;2023-08-20T09:37:17;102236.38;;;27.88;43.10
79589;BME280;69067;51.930;4.492;2023-08-20T09:39:44;102269.56;;;28.06;42.83
79589;BME280;69067;51.930;4.492;2023-08-20T09:42:12;102267.84;;;28.05;43.00
79589;BME280;69067;51.930;4.492;2023-08-20T09:44:40;102245.25;;;27.90;43.30
79589;BME280;69067;51.930;4.492;2023-08-20T09:47:10;102255.84;;;28.00;43.03
79589;BME280;69067;51.930;4.492;2023-08-20T09:49:42;102248.41;;;27.94;42.58
79589;BME280;69067;51.930;4.492;2023-08-20T09:52:19;102261.53;;;28.05;43.24
79589;BME280;69067;51.930;4.492;2023-08-20T09:55:08;102272.28;;;28.06;42.80
79589;BME280;69067;51.930;4.492;2023-08-20T09:57:41;102268.72;;;28.06;42.84
79589;BME280;69067;51.930;4.492;2023-08-20T10:00:09;102248.88;;;27.97;42.82
79589;BME280;69067;51.930;4.492;2023-08-20T10:02:37;102268.72;;;28.06;43.58
79589;BME280;69067;51.930;4.492;2023-08-20T10:05:06;102250.53;;;27.92;43.05
79589;BME280;69067;51.930;4.492;2023-08-20T10:07:33;102252.25;;;27.99;42.80
79589;BME280;69067;51.930;4.492;2023-08-20T10:10:02;102268.50;;;28.07;43.32
79589;BME280;69067;51.930;4.492;2023-08-20T10:12:31;102264.06;;;28.06;43.32
79589;BME280;69067;51.930;4.492;2023-08-20T10:14:59;102265.97;;;28.06;42.59
79589;BME280;69067;51.930;4.492;2023-08-20T10:17:29;102263.84;;;28.08;43.09
79589;BME280;69067;51.930;4.492;2023-08-20T10:19:58;102250.97;;;28.02;43.11
79589;BME280;69067;51.930;4.492;2023-08-20T10:22:42;102262.81;;;28.09;43.25
79589;BME280;69067;51.930;4.492;2023-08-20T10:25:23;102261.13;;;28.08;42.89
79589;BME280;69067;51.930;4.492;2023-08-20T10:27:50;102260.28;;;28.07;43.26
79589;BME280;69067;51.930;4.492;2023-08-20T10:30:18;102239.59;;;27.98;42.84
79589;BME280;69067;51.930;4.492;2023-08-20T10:32:57;102231.97;;;27.94;43.20
79589;BME280;69067;51.930;4.492;2023-08-20T10:35:47;102232.81;;;27.94;43.02
79589;BME280;69067;51.930;4.492;2023-08-20T10:38:15;102234.31;;;27.97;43.07
79589;BME280;69067;51.930;4.492;2023-08-20T10:40:58;102259.03;;;28.10;43.50
79589;BME280;69067;51.930;4.492;2023-08-20T10:46:06;102258.63;;;28.13;43.28
79589;BME280;69067;51.930;4.492;2023-08-20T10:48:53;102240.03;;;28.02;43.54
79589;BME280;69067;51.930;4.492;2023-08-20T10:56:45;102252.09;;;28.14;43.10
79589;BME280;69067;51.930;4.492;2023-08-20T10:59:15;102251.06;;;28.15;43.48
79589;BME280;69067;51.930;4.492;2023-08-20T11:01:50;102237.94;;;28.04;43.71
79589;BME280;69067;51.930;4.492;2023-08-20T11:04:19;102252.75;;;28.16;43.73
79589;BME280;69067;51.930;4.492;2023-08-20T11:06:47;102253.81;;;28.15;43.18
79589;BME280;69067;51.930;4.492;2023-08-20T11:09:17;102232.06;;;28.07;43.04
79589;BME280;69067;51.930;4.492;2023-08-20T11:11:43;102249.63;;;28.19;43.07
79589;BME280;69067;51.930;4.492;2023-08-20T11:14:13;102249.63;;;28.19;43.29
79589;BME280;69067;51.930;4.492;2023-08-20T11:16:43;102249.81;;;28.17;43.34
79589;BME280;69067;51.930;4.492;2023-08-20T11:19:10;102228.69;;;28.05;42.11
79589;BME280;69067;51.930;4.492;2023-08-20T11:21:43;102211.78;;;28.01;42.62
79589;BME280;69067;51.930;4.492;2023-08-20T11:24:10;102238.00;;;28.17;42.74
79589;BME280;69067;51.930;4.492;2023-08-20T11:26:39;102227.44;;;28.14;42.76
79589;BME280;69067;51.930;4.492;2023-08-20T11:29:09;102236.78;;;28.19;42.85
79589;BME280;69067;51.930;4.492;2023-08-20T11:31:36;102233.84;;;28.21;42.78
79589;BME280;69067;51.930;4.492;2023-08-20T11:34:03;102235.50;;;28.22;42.12
79589;BME280;69067;51.930;4.492;2023-08-20T11:36:29;102224.72;;;28.14;42.85
79589;BME280;69067;51.930;4.492;2023-08-20T11:38:55;102226.41;;;28.15;42.80
79589;BME280;69067;51.930;4.492;2023-08-20T11:41:22;102197.06;;;28.02;42.60
79589;BME280;69067;51.930;4.492;2023-08-20T11:43:51;102200.63;;;28.03;42.71
79589;BME280;69067;51.930;4.492;2023-08-20T11:46:22;102204.69;;;28.07;42.85
79589;BME280;69067;51.930;4.492;2023-08-20T11:51:26;102231.69;;;28.16;42.93
79589;BME280;69067;51.930;4.492;2023-08-20T11:53:52;102243.72;;;28.22;43.04
79589;BME280;69067;51.930;4.492;2023-08-20T11:56:18;102249.19;;;28.22;42.83
79589;BME280;69067;51.930;4.492;2023-08-20T11:58:52;102249.00;;;28.24;43.52
79589;BME280;69067;51.930;4.492;2023-08-20T12:01:18;102234.38;;;28.10;42.57
79589;BME280;69067;51.930;4.492;2023-08-20T12:03:45;102243.72;;;28.22;43.40
79589;BME280;69067;51.930;4.492;2023-08-20T12:06:21;102234.63;;;28.15;42.95
79589;BME280;69067;51.930;4.492;2023-08-20T12:08:50;102249.84;;;28.24;43.06
79589;BME280;69067;51.930;4.492;2023-08-20T12:11:16;102252.56;;;28.24;42.76
79589;BME280;69067;51.930;4.492;2023-08-20T12:13:42;102255.09;;;28.19;43.15
79589;BME280;69067;51.930;4.492;2023-08-20T12:16:08;102260.78;;;28.24;42.79
79589;BME280;69067;51.930;4.492;2023-08-20T12:19:01;102257.84;;;28.19;43.07
79589;BME280;69067;51.930;4.492;2023-08-20T12:21:28;102226.59;;;28.07;43.12
79589;BME280;69067;51.930;4.492;2023-08-20T12:23:54;102238.41;;;28.14;42.98
79589;BME280;69067;51.930;4.492;2023-08-20T12:26:20;102243.50;;;28.17;43.41
79589;BME280;69067;51.930;4.492;2023-08-20T12:28:46;102250.88;;;28.23;43.33
79589;BME280;69067;51.930;4.492;2023-08-20T12:31:12;102250.69;;;28.25;43.13
79589;BME280;69067;51.930;4.492;2023-08-20T12:33:38;102250.25;;;28.21;43.39
79589;BME280;69067;51.930;4.492;2023-08-20T12:36:04;102238.66;;;28.19;43.04
79589;BME280;69067;51.930;4.492;2023-08-20T12:38:30;102221.31;;;28.12;43.15
79589;BME280;69067;51.930;4.492;2023-08-20T12:41:00;102226.16;;;28.10;42.75
79589;BME280;69067;51.930;4.492;2023-08-20T12:43:27;102255.75;;;28.28;43.19
79589;BME280;69067;51.930;4.492;2023-08-20T12:45:53;102249.63;;;28.26;42.83
79589;BME280;69067;51.930;4.492;2023-08-20T12:48:18;102259.13;;;28.30;42.68
79589;BME280;69067;51.930;4.492;2023-08-20T12:50:44;102236.78;;;28.19;42.74
79589;BME280;69067;51.930;4.492;2023-08-20T12:53:10;102239.94;;;28.23;42.26
79589;BME280;69067;51.930;4.492;2023-08-20T12:55:38;102226.22;;;28.16;41.84
79589;BME280;69067;51.930;4.492;2023-08-20T12:58:04;102241.41;;;28.26;42.09
79589;BME280;69067;51.930;4.492;2023-08-20T13:00:30;102214.16;;;28.11;41.07
79589;BME280;69067;51.930;4.492;2023-08-20T13:02:56;102212.91;;;28.13;41.15
79589;BME280;69067;51.930;4.492;2023-08-20T13:05:24;102238.06;;;28.30;42.48
79589;BME280;69067;51.930;4.492;2023-08-20T13:07:51;102229.63;;;28.25;42.18
79589;BME280;69067;51.930;4.492;2023-08-20T13:10:18;102236.78;;;28.26;42.57
79589;BME280;69067;51.930;4.492;2023-08-20T13:12:48;102218.22;;;28.21;42.54